EKSN

Details ICAO EKSN (CNL)
Name Sindal
Region Denmark / Faroe Islands
Timezone Europe/Copenhagen (UTC+2.0)
Plans Departing 12
Arriving 22
Stats Elevation 92 ft / 28 m (AMSL)
Location 57.503525° 10.229371°
Runways 1
Magnetic Variation 3.022° E
Sunrise 2018-06-25 02:22:25 UTC / 2018-06-25 04:22:25 Local
Sunset 2018-06-25 20:23:22 UTC / 2018-06-25 22:23:22 Local
Advertisement - Login to hide

Runways

ID Width Length Bearing (true) Bearing (mag) Surface Threshold Offset Overrun Length
09 98 ft / 30 m 3,921 ft / 1,195 m 86.26° 83.24° Asphalt 0 ft / 0 m 0 ft / 0 m
27 98 ft / 30 m 3,921 ft / 1,195 m 266.27° 263.25° Asphalt 0 ft / 0 m 0 ft / 0 m

Approach Navaids

Runway Type Ident Frequency Range Bearing (true) Bearing (mag) Slope Elevation
27 Localiser SDL 110.15 MHz 18 nm / 33 km 266.25° 263.22° - 92 ft / 28 m (AMSL)
27 Glidescope SDL 110.15 MHz 10 nm / 19 km 266.26° 263.24° 3.00° 92 ft / 28 m (AMSL)
27 DME SDL 110.15 MHz 18 nm / 33 km - - - 92 ft / 28 m (AMSL)

Map

Weather


0- 5 10 15 20 25 30 35+ Temperature / ° C

Clouds and Precipitation
Forecast for 2018-06-25 12:00 UTC. Updated 38 minutes ago

Ground ~20,000 ft ~40,000 ft Winds

METAR

EKSN 250950Z 31005KT CAVOK 21/12 Q1017

TAF

Not found

Frequencies

Tower 118.75 MHz AFIS
Approach 123.97 MHz AALBORG APP
Warning: Do not use this data for real-world aviation or navigation. No guarantee of current accuracy is given.